sensor_id;sensor_type;location;lat;lon;timestamp;pressure;altitude;pressure_sealevel;temperature;humidity
74633;BME280;63139;52.018;8.552;2024-02-23T00:02:24;97395.72;;;9.29;78.81
74633;BME280;63139;52.018;8.552;2024-02-23T00:04:54;97396.44;;;9.25;81.62
74633;BME280;63139;52.018;8.552;2024-02-23T00:07:22;97410.19;;;9.27;79.88
74633;BME280;63139;52.018;8.552;2024-02-23T00:09:49;97415.22;;;9.28;80.92
74633;BME280;63139;52.018;8.552;2024-02-23T00:12:17;97420.75;;;9.27;81.58
74633;BME280;63139;52.018;8.552;2024-02-23T00:14:45;97438.09;;;9.23;82.53
74633;BME280;63139;52.018;8.552;2024-02-23T00:17:13;97446.84;;;9.12;81.60
74633;BME280;63139;52.018;8.552;2024-02-23T00:19:44;97455.56;;;9.12;83.53
74633;BME280;63139;52.018;8.552;2024-02-23T00:22:14;97463.97;;;9.09;83.88
74633;BME280;63139;52.018;8.552;2024-02-23T00:24:42;97466.38;;;8.99;84.42
74633;BME280;63139;52.018;8.552;2024-02-23T00:27:10;97470.97;;;8.92;85.86
74633;BME280;63139;52.018;8.552;2024-02-23T00:29:38;97491.78;;;8.88;87.15
74633;BME280;63139;52.018;8.552;2024-02-23T00:32:07;97476.97;;;8.76;87.17
74633;BME280;63139;52.018;8.552;2024-02-23T00:34:35;97508.88;;;8.74;89.16
74633;BME280;63139;52.018;8.552;2024-02-23T00:37:04;97521.94;;;8.57;89.04
74633;BME280;63139;52.018;8.552;2024-02-23T00:39:33;97528.13;;;8.51;90.55
74633;BME280;63139;52.018;8.552;2024-02-23T00:42:03;97524.19;;;8.42;92.51
74633;BME280;63139;52.018;8.552;2024-02-23T00:44:31;97547.94;;;8.42;94.28
74633;BME280;63139;52.018;8.552;2024-02-23T00:46:59;97584.63;;;8.26;97.67
74633;BME280;63139;52.018;8.552;2024-02-23T00:49:28;97609.59;;;8.23;98.65
74633;BME280;63139;52.018;8.552;2024-02-23T00:51:56;97602.47;;;8.12;99.00
74633;BME280;63139;52.018;8.552;2024-02-23T00:54:24;97618.22;;;8.00;100.00
74633;BME280;63139;52.018;8.552;2024-02-23T00:56:54;97628.50;;;7.90;100.00
74633;BME280;63139;52.018;8.552;2024-02-23T00:59:23;97650.53;;;7.77;100.00
74633;BME280;63139;52.018;8.552;2024-02-23T01:01:51;97657.31;;;7.67;100.00
74633;BME280;63139;52.018;8.552;2024-02-23T01:04:19;97668.88;;;7.48;100.00
74633;BME280;63139;52.018;8.552;2024-02-23T01:06:47;97676.72;;;7.54;100.00
74633;BME280;63139;52.018;8.552;2024-02-23T01:09:15;97691.47;;;7.55;100.00
74633;BME280;63139;52.018;8.552;2024-02-23T01:11:47;97692.59;;;7.41;100.00
74633;BME280;63139;52.018;8.552;2024-02-23T01:14:17;97711.91;;;7.35;100.00
74633;BME280;63139;52.018;8.552;2024-02-23T01:16:45;97714.44;;;7.23;100.00
74633;BME280;63139;52.018;8.552;2024-02-23T01:19:13;97745.25;;;7.16;100.00
74633;BME280;63139;52.018;8.552;2024-02-23T01:21:42;97750.13;;;7.13;100.00
74633;BME280;63139;52.018;8.552;2024-02-23T01:24:10;97749.00;;;7.02;100.00
74633;BME280;63139;52.018;8.552;2024-02-23T01:26:38;97770.13;;;6.89;100.00
74633;BME280;63139;52.018;8.552;2024-02-23T01:29:09;97765.53;;;6.78;100.00
74633;BME280;63139;52.018;8.552;2024-02-23T01:31:38;97780.13;;;6.74;100.00
74633;BME280;63139;52.018;8.552;2024-02-23T01:34:06;97791.41;;;6.81;100.00
74633;BME280;63139;52.018;8.552;2024-02-23T01:36:34;97777.06;;;6.77;100.00
74633;BME280;63139;52.018;8.552;2024-02-23T01:39:03;97779.72;;;6.70;100.00
74633;BME280;63139;52.018;8.552;2024-02-23T01:41:31;97781.19;;;6.66;100.00
74633;BME280;63139;52.018;8.552;2024-02-23T01:43:59;97794.31;;;6.66;100.00
74633;BME280;63139;52.018;8.552;2024-02-23T01:46:28;97793.28;;;6.67;100.00
74633;BME280;63139;52.018;8.552;2024-02-23T01:48:57;97796.97;;;6.59;100.00
74633;BME280;63139;52.018;8.552;2024-02-23T01:51:26;97812.16;;;6.57;100.00
74633;BME280;63139;52.018;8.552;2024-02-23T01:53:54;97819.25;;;6.50;100.00
74633;BME280;63139;52.018;8.552;2024-02-23T01:56:22;97822.16;;;6.36;100.00
74633;BME280;63139;52.018;8.552;2024-02-23T01:58:51;97821.50;;;6.40;100.00
74633;BME280;63139;52.018;8.552;2024-02-23T02:01:20;97830.81;;;6.43;100.00
74633;BME280;63139;52.018;8.552;2024-02-23T02:03:48;97841.31;;;6.43;100.00
74633;BME280;63139;52.018;8.552;2024-02-23T02:06:17;97833.00;;;6.46;100.00
74633;BME280;63139;52.018;8.552;2024-02-23T02:08:45;97841.69;;;6.46;100.00
74633;BME280;63139;52.018;8.552;2024-02-23T02:11:14;97842.53;;;6.40;100.00
74633;BME280;63139;52.018;8.552;2024-02-23T02:13:43;97837.69;;;6.44;100.00
74633;BME280;63139;52.018;8.552;2024-02-23T02:16:11;97853.03;;;6.40;100.00
74633;BME280;63139;52.018;8.552;2024-02-23T02:18:39;97865.78;;;6.43;100.00
74633;BME280;63139;52.018;8.552;2024-02-23T02:21:07;97871.03;;;6.43;100.00
74633;BME280;63139;52.018;8.552;2024-02-23T02:23:36;97866.00;;;6.35;100.00
74633;BME280;63139;52.018;8.552;2024-02-23T02:26:05;97877.09;;;6.31;100.00
74633;BME280;63139;52.018;8.552;2024-02-23T02:28:33;97882.97;;;6.33;100.00
74633;BME280;63139;52.018;8.552;2024-02-23T02:31:01;97888.84;;;6.35;100.00
74633;BME280;63139;52.018;8.552;2024-02-23T02:33:29;97891.66;;;6.33;100.00
74633;BME280;63139;52.018;8.552;2024-02-23T02:35:57;97889.25;;;6.25;100.00
74633;BME280;63139;52.018;8.552;2024-02-23T02:38:25;97898.78;;;6.13;100.00
74633;BME280;63139;52.018;8.552;2024-02-23T02:40:55;97894.34;;;6.07;100.00
74633;BME280;63139;52.018;8.552;2024-02-23T02:43:24;97907.88;;;5.97;100.00
74633;BME280;63139;52.018;8.552;2024-02-23T02:45:52;97910.50;;;5.91;100.00
74633;BME280;63139;52.018;8.552;2024-02-23T02:48:20;97928.06;;;5.90;100.00
74633;BME280;63139;52.018;8.552;2024-02-23T02:50:48;97925.44;;;5.97;100.00
74633;BME280;63139;52.018;8.552;2024-02-23T02:53:20;97937.94;;;6.01;100.00
74633;BME280;63139;52.018;8.552;2024-02-23T02:55:48;97940.38;;;6.09;100.00
74633;BME280;63139;52.018;8.552;2024-02-23T02:58:17;97933.09;;;6.18;100.00
74633;BME280;63139;52.018;8.552;2024-02-23T03:00:45;97935.94;;;6.23;100.00
74633;BME280;63139;52.018;8.552;2024-02-23T03:03:13;97932.50;;;6.29;100.00
74633;BME280;63139;52.018;8.552;2024-02-23T03:05:41;97943.00;;;6.36;100.00
74633;BME280;63139;52.018;8.552;2024-02-23T03:08:09;97943.19;;;6.41;100.00
74633;BME280;63139;52.018;8.552;2024-02-23T03:10:37;97945.00;;;6.47;100.00
74633;BME280;63139;52.018;8.552;2024-02-23T03:13:05;97937.56;;;6.37;100.00
74633;BME280;63139;52.018;8.552;2024-02-23T03:15:34;97946.22;;;6.38;100.00
74633;BME280;63139;52.018;8.552;2024-02-23T03:18:02;97948.06;;;6.44;100.00
74633;BME280;63139;52.018;8.552;2024-02-23T03:20:31;97964.00;;;6.49;100.00
74633;BME280;63139;52.018;8.552;2024-02-23T03:22:59;97956.31;;;6.54;100.00
74633;BME280;63139;52.018;8.552;2024-02-23T03:25:27;97962.38;;;6.54;100.00
74633;BME280;63139;52.018;8.552;2024-02-23T03:27:56;97967.81;;;6.59;100.00
74633;BME280;63139;52.018;8.552;2024-02-23T03:30:24;97974.09;;;6.65;100.00
74633;BME280;63139;52.018;8.552;2024-02-23T03:32:54;97967.41;;;6.69;100.00
74633;BME280;63139;52.018;8.552;2024-02-23T03:35:22;97959.50;;;6.76;100.00
74633;BME280;63139;52.018;8.552;2024-02-23T03:37:50;97959.50;;;6.76;100.00
74633;BME280;63139;52.018;8.552;2024-02-23T03:40:17;97965.16;;;6.79;100.00
74633;BME280;63139;52.018;8.552;2024-02-23T03:42:45;97961.91;;;6.84;100.00
74633;BME280;63139;52.018;8.552;2024-02-23T03:45:13;97971.00;;;6.88;100.00
74633;BME280;63139;52.018;8.552;2024-02-23T03:47:42;97971.19;;;6.93;100.00
74633;BME280;63139;52.018;8.552;2024-02-23T03:50:11;97968.75;;;6.98;100.00
74633;BME280;63139;52.018;8.552;2024-02-23T03:52:40;97975.66;;;6.92;100.00
74633;BME280;63139;52.018;8.552;2024-02-23T03:55:08;97982.31;;;6.95;100.00
74633;BME280;63139;52.018;8.552;2024-02-23T03:57:36;97985.75;;;6.95;100.00
74633;BME280;63139;52.018;8.552;2024-02-23T04:00:05;97978.69;;;6.89;100.00
74633;BME280;63139;52.018;8.552;2024-02-23T04:02:39;97984.56;;;6.85;100.00
74633;BME280;63139;52.018;8.552;2024-02-23T04:05:07;97987.59;;;6.82;100.00
74633;BME280;63139;52.018;8.552;2024-02-23T04:07:37;97996.72;;;6.79;100.00
74633;BME280;63139;52.018;8.552;2024-02-23T04:10:06;97994.69;;;6.75;100.00
74633;BME280;63139;52.018;8.552;2024-02-23T04:12:34;97996.13;;;6.64;100.00
74633;BME280;63139;52.018;8.552;2024-02-23T04:15:03;97998.78;;;6.51;98.69
74633;BME280;63139;52.018;8.552;2024-02-23T04:17:31;97996.16;;;6.38;100.00
74633;BME280;63139;52.018;8.552;2024-02-23T04:20:00;98002.81;;;6.34;100.00
74633;BME280;63139;52.018;8.552;2024-02-23T04:22:33;98016.78;;;6.28;100.00
74633;BME280;63139;52.018;8.552;2024-02-23T04:25:03;98009.72;;;6.21;100.00
74633;BME280;63139;52.018;8.552;2024-02-23T04:27:31;98002.22;;;6.18;100.00
74633;BME280;63139;52.018;8.552;2024-02-23T04:29:59;98015.53;;;6.17;100.00
74633;BME280;63139;52.018;8.552;2024-02-23T04:32:27;98011.91;;;6.18;100.00
74633;BME280;63139;52.018;8.552;2024-02-23T04:34:55;98024.25;;;6.17;100.00
74633;BME280;63139;52.018;8.552;2024-02-23T04:37:24;98031.50;;;6.15;100.00
74633;BME280;63139;52.018;8.552;2024-02-23T04:39:52;98035.16;;;6.14;100.00
74633;BME280;63139;52.018;8.552;2024-02-23T04:42:21;98041.63;;;6.12;100.00
74633;BME280;63139;52.018;8.552;2024-02-23T04:44:49;98045.66;;;6.14;100.00
74633;BME280;63139;52.018;8.552;2024-02-23T04:47:19;98057.78;;;6.15;99.81
74633;BME280;63139;52.018;8.552;2024-02-23T04:49:47;98050.94;;;6.14;99.96
74633;BME280;63139;52.018;8.552;2024-02-23T04:52:16;98056.56;;;6.18;100.00
74633;BME280;63139;52.018;8.552;2024-02-23T04:54:44;98065.69;;;6.22;100.00
74633;BME280;63139;52.018;8.552;2024-02-23T04:57:11;98063.06;;;6.29;100.00
74633;BME280;63139;52.018;8.552;2024-02-23T04:59:41;98067.09;;;6.38;100.00
74633;BME280;63139;52.018;8.552;2024-02-23T05:02:09;98074.38;;;6.42;100.00
74633;BME280;63139;52.018;8.552;2024-02-23T05:04:37;98070.53;;;6.45;100.00
74633;BME280;63139;52.018;8.552;2024-02-23T05:07:05;98075.19;;;6.56;100.00
74633;BME280;63139;52.018;8.552;2024-02-23T05:09:33;98075.59;;;6.59;100.00
74633;BME280;63139;52.018;8.552;2024-02-23T05:12:01;98081.47;;;6.61;99.15
74633;BME280;63139;52.018;8.552;2024-02-23T05:14:30;98079.66;;;6.62;98.87
74633;BME280;63139;52.018;8.552;2024-02-23T05:16:59;98074.56;;;6.67;97.82
74633;BME280;63139;52.018;8.552;2024-02-23T05:19:27;98097.84;;;6.70;97.74
74633;BME280;63139;52.018;8.552;2024-02-23T05:21:55;98091.59;;;6.71;97.21
74633;BME280;63139;52.018;8.552;2024-02-23T05:24:23;98090.97;;;6.76;97.93
74633;BME280;63139;52.018;8.552;2024-02-23T05:26:52;98096.22;;;6.76;97.87
74633;BME280;63139;52.018;8.552;2024-02-23T05:29:20;98103.53;;;6.80;98.90
74633;BME280;63139;52.018;8.552;2024-02-23T05:31:52;98106.16;;;6.80;97.52
74633;BME280;63139;52.018;8.552;2024-02-23T05:34:21;98103.09;;;6.83;98.63
74633;BME280;63139;52.018;8.552;2024-02-23T05:36:50;98105.34;;;6.86;98.84
74633;BME280;63139;52.018;8.552;2024-02-23T05:39:18;98091.75;;;6.89;99.14
74633;BME280;63139;52.018;8.552;2024-02-23T05:41:46;98093.63;;;6.89;98.89
74633;BME280;63139;52.018;8.552;2024-02-23T05:44:14;98101.69;;;6.87;98.39
74633;BME280;63139;52.018;8.552;2024-02-23T05:46:42;98109.38;;;6.89;99.47
74633;BME280;63139;52.018;8.552;2024-02-23T05:49:11;98101.50;;;6.89;98.73
74633;BME280;63139;52.018;8.552;2024-02-23T05:51:40;98099.47;;;6.84;98.56
74633;BME280;63139;52.018;8.552;2024-02-23T05:54:08;98118.06;;;6.89;98.13
74633;BME280;63139;52.018;8.552;2024-02-23T05:56:36;98119.69;;;6.90;98.59
74633;BME280;63139;52.018;8.552;2024-02-23T05:59:05;98111.22;;;6.88;100.00
74633;BME280;63139;52.018;8.552;2024-02-23T06:01:33;98116.66;;;6.87;100.00
74633;BME280;63139;52.018;8.552;2024-02-23T06:04:01;98117.47;;;6.87;100.00
74633;BME280;63139;52.018;8.552;2024-02-23T06:06:29;98114.84;;;6.87;99.44
74633;BME280;63139;52.018;8.552;2024-02-23T06:08:59;98112.41;;;6.86;98.87
74633;BME280;63139;52.018;8.552;2024-02-23T06:11:29;98108.78;;;6.87;98.73
74633;BME280;63139;52.018;8.552;2024-02-23T06:13:57;98111.59;;;6.85;97.47
74633;BME280;63139;52.018;8.552;2024-02-23T06:16:29;98110.19;;;6.83;95.95
74633;BME280;63139;52.018;8.552;2024-02-23T06:18:57;98109.16;;;6.84;96.74
74633;BME280;63139;52.018;8.552;2024-02-23T06:21:25;98115.06;;;6.79;96.07
74633;BME280;63139;52.018;8.552;2024-02-23T06:23:53;98107.34;;;6.78;96.58
74633;BME280;63139;52.018;8.552;2024-02-23T06:26:22;98114.00;;;6.67;96.82
74633;BME280;63139;52.018;8.552;2024-02-23T06:28:50;98114.44;;;6.64;96.77
74633;BME280;63139;52.018;8.552;2024-02-23T06:31:18;98121.50;;;6.57;97.21
74633;BME280;63139;52.018;8.552;2024-02-23T06:33:46;98116.84;;;6.46;98.42
74633;BME280;63139;52.018;8.552;2024-02-23T06:36:16;98113.38;;;6.39;98.56
74633;BME280;63139;52.018;8.552;2024-02-23T06:38:45;98122.50;;;6.36;98.38
74633;BME280;63139;52.018;8.552;2024-02-23T06:41:14;98118.25;;;6.35;98.98
74633;BME280;63139;52.018;8.552;2024-02-23T06:43:44;98125.31;;;6.35;98.25
74633;BME280;63139;52.018;8.552;2024-02-23T06:46:11;98116.81;;;6.26;97.77
74633;BME280;63139;52.018;8.552;2024-02-23T06:48:39;98125.66;;;6.12;99.05
74633;BME280;63139;52.018;8.552;2024-02-23T06:51:07;98126.44;;;5.99;100.00
74633;BME280;63139;52.018;8.552;2024-02-23T06:53:36;98121.38;;;5.91;100.00
74633;BME280;63139;52.018;8.552;2024-02-23T06:56:05;98131.38;;;5.81;100.00
74633;BME280;63139;52.018;8.552;2024-02-23T06:58:34;98122.84;;;5.72;100.00
74633;BME280;63139;52.018;8.552;2024-02-23T07:01:03;98132.16;;;5.68;100.00
74633;BME280;63139;52.018;8.552;2024-02-23T07:03:32;98150.09;;;5.65;100.00
74633;BME280;63139;52.018;8.552;2024-02-23T07:06:02;98150.09;;;5.65;100.00
74633;BME280;63139;52.018;8.552;2024-02-23T07:08:30;98150.06;;;5.58;100.00
74633;BME280;63139;52.018;8.552;2024-02-23T07:10:58;98155.47;;;5.57;100.00
74633;BME280;63139;52.018;8.552;2024-02-23T07:13:27;98154.91;;;5.55;100.00
74633;BME280;63139;52.018;8.552;2024-02-23T07:15:55;98157.06;;;5.51;100.00
74633;BME280;63139;52.018;8.552;2024-02-23T07:18:25;98160.13;;;5.55;100.00
74633;BME280;63139;52.018;8.552;2024-02-23T07:20:53;98147.41;;;5.52;100.00
74633;BME280;63139;52.018;8.552;2024-02-23T07:23:21;98154.28;;;5.53;100.00
74633;BME280;63139;52.018;8.552;2024-02-23T07:25:49;98144.59;;;5.53;100.00
74633;BME280;63139;52.018;8.552;2024-02-23T07:28:18;98150.03;;;5.52;100.00
74633;BME280;63139;52.018;8.552;2024-02-23T07:30:46;98148.22;;;5.52;100.00
74633;BME280;63139;52.018;8.552;2024-02-23T07:33:15;98140.16;;;5.54;100.00
74633;BME280;63139;52.018;8.552;2024-02-23T07:35:44;98144.41;;;5.55;100.00
74633;BME280;63139;52.018;8.552;2024-02-23T07:38:12;98154.31;;;5.59;100.00
74633;BME280;63139;52.018;8.552;2024-02-23T07:40:40;98137.13;;;5.57;100.00
74633;BME280;63139;52.018;8.552;2024-02-23T07:43:09;98145.44;;;5.60;100.00
74633;BME280;63139;52.018;8.552;2024-02-23T07:45:37;98153.72;;;5.64;100.00
74633;BME280;63139;52.018;8.552;2024-02-23T07:48:06;98147.28;;;5.66;100.00
74633;BME280;63139;52.018;8.552;2024-02-23T07:50:35;98152.16;;;5.69;100.00
74633;BME280;63139;52.018;8.552;2024-02-23T07:53:04;98155.59;;;5.76;100.00
74633;BME280;63139;52.018;8.552;2024-02-23T07:55:33;98155.41;;;5.78;100.00
74633;BME280;63139;52.018;8.552;2024-02-23T07:58:01;98148.94;;;5.80;100.00
74633;BME280;63139;52.018;8.552;2024-02-23T08:00:29;98144.13;;;5.84;100.00
74633;BME280;63139;52.018;8.552;2024-02-23T08:02:57;98147.00;;;5.89;100.00
74633;BME280;63139;52.018;8.552;2024-02-23T08:05:26;98154.28;;;5.94;100.00
74633;BME280;63139;52.018;8.552;2024-02-23T08:07:54;98154.53;;;5.99;100.00
74633;BME280;63139;52.018;8.552;2024-02-23T08:10:24;98160.78;;;6.04;100.00
74633;BME280;63139;52.018;8.552;2024-02-23T08:12:53;98156.75;;;6.08;100.00
74633;BME280;63139;52.018;8.552;2024-02-23T08:15:21;98174.56;;;6.13;99.87
74633;BME280;63139;52.018;8.552;2024-02-23T08:17:49;98174.97;;;6.16;100.00
74633;BME280;63139;52.018;8.552;2024-02-23T08:20:18;98186.31;;;6.23;99.88
74633;BME280;63139;52.018;8.552;2024-02-23T08:22:46;98182.91;;;6.30;97.92
74633;BME280;63139;52.018;8.552;2024-02-23T08:25:14;98213.47;;;6.37;97.73
74633;BME280;63139;52.018;8.552;2024-02-23T08:27:44;98215.88;;;6.39;98.42
74633;BME280;63139;52.018;8.552;2024-02-23T08:30:14;98213.47;;;6.44;98.52
74633;BME280;63139;52.018;8.552;2024-02-23T08:32:41;98219.75;;;6.49;97.49
74633;BME280;63139;52.018;8.552;2024-02-23T08:35:10;98218.75;;;6.50;96.96
74633;BME280;63139;52.018;8.552;2024-02-23T08:37:37;98220.38;;;6.51;97.95
74633;BME280;63139;52.018;8.552;2024-02-23T08:40:07;98217.97;;;6.56;97.77
74633;BME280;63139;52.018;8.552;2024-02-23T08:42:36;98218.78;;;6.63;96.58
74633;BME280;63139;52.018;8.552;2024-02-23T08:45:06;98222.03;;;6.66;95.84
74633;BME280;63139;52.018;8.552;2024-02-23T08:47:34;98224.69;;;6.79;96.99
74633;BME280;63139;52.018;8.552;2024-02-23T08:50:03;98215.16;;;6.78;96.04
74633;BME280;63139;52.018;8.552;2024-02-23T08:52:31;98226.31;;;6.86;94.98
74633;BME280;63139;52.018;8.552;2024-02-23T08:54:59;98225.94;;;6.96;94.86
74633;BME280;63139;52.018;8.552;2024-02-23T08:57:28;98237.03;;;7.05;94.46
74633;BME280;63139;52.018;8.552;2024-02-23T08:59:55;98232.41;;;7.33;92.13
74633;BME280;63139;52.018;8.552;2024-02-23T09:02:26;98236.84;;;7.59;91.72
74633;BME280;63139;52.018;8.552;2024-02-23T09:04:54;98250.53;;;7.94;90.87
74633;BME280;63139;52.018;8.552;2024-02-23T09:07:22;98245.00;;;8.28;88.66
74633;BME280;63139;52.018;8.552;2024-02-23T09:09:51;98245.53;;;8.50;84.89
74633;BME280;63139;52.018;8.552;2024-02-23T09:12:19;98248.88;;;8.70;86.81
74633;BME280;63139;52.018;8.552;2024-02-23T09:14:47;98242.28;;;8.86;84.99
74633;BME280;63139;52.018;8.552;2024-02-23T09:17:15;98249.41;;;9.17;83.72
74633;BME280;63139;52.018;8.552;2024-02-23T09:19:48;98243.59;;;9.33;81.91
74633;BME280;63139;52.018;8.552;2024-02-23T09:22:16;98252.00;;;9.48;79.54
74633;BME280;63139;52.018;8.552;2024-02-23T09:24:43;98255.59;;;9.54;79.94
74633;BME280;63139;52.018;8.552;2024-02-23T09:27:11;98249.03;;;9.63;78.32
74633;BME280;63139;52.018;8.552;2024-02-23T09:29:40;98238.97;;;9.71;77.12
74633;BME280;63139;52.018;8.552;2024-02-23T09:32:08;98247.88;;;9.77;77.53
74633;BME280;63139;52.018;8.552;2024-02-23T09:34:36;98241.84;;;9.88;75.39
74633;BME280;63139;52.018;8.552;2024-02-23T09:37:05;98239.31;;;10.00;75.52
74633;BME280;63139;52.018;8.552;2024-02-23T09:39:33;98235.41;;;10.02;74.25
74633;BME280;63139;52.018;8.552;2024-02-23T09:42:01;98232.69;;;10.09;73.37
74633;BME280;63139;52.018;8.552;2024-02-23T09:44:32;98244.81;;;10.17;72.97
74633;BME280;63139;52.018;8.552;2024-02-23T09:47:01;98241.25;;;10.29;70.73
74633;BME280;63139;52.018;8.552;2024-02-23T09:49:38;98255.41;;;10.35;71.67
74633;BME280;63139;52.018;8.552;2024-02-23T09:52:09;98265.19;;;10.34;71.74
74633;BME280;63139;52.018;8.552;2024-02-23T09:54:38;98265.69;;;10.25;73.00
74633;BME280;63139;52.018;8.552;2024-02-23T09:57:07;98254.53;;;10.23;69.43
74633;BME280;63139;52.018;8.552;2024-02-23T09:59:35;98270.44;;;10.16;70.26
74633;BME280;63139;52.018;8.552;2024-02-23T10:02:06;98267.59;;;10.18;71.30
74633;BME280;63139;52.018;8.552;2024-02-23T10:04:36;98266.38;;;10.20;71.98
74633;BME280;63139;52.018;8.552;2024-02-23T10:07:05;98248.47;;;10.16;70.92
74633;BME280;63139;52.018;8.552;2024-02-23T10:09:35;98272.72;;;10.12;70.02
74633;BME280;63139;52.018;8.552;2024-02-23T10:12:04;98280.94;;;10.04;69.48
74633;BME280;63139;52.018;8.552;2024-02-23T10:14:32;98281.50;;;9.88;69.23
74633;BME280;63139;52.018;8.552;2024-02-23T10:17:00;98291.00;;;9.96;70.75
74633;BME280;63139;52.018;8.552;2024-02-23T10:19:29;98293.91;;;9.88;71.15
74633;BME280;63139;52.018;8.552;2024-02-23T10:21:57;98285.97;;;9.88;70.91
74633;BME280;63139;52.018;8.552;2024-02-23T10:24:25;98285.97;;;9.88;70.50
74633;BME280;63139;52.018;8.552;2024-02-23T10:26:54;98292.97;;;10.00;70.09
74633;BME280;63139;52.018;8.552;2024-02-23T10:29:23;98283.91;;;10.15;70.62
74633;BME280;63139;52.018;8.552;2024-02-23T10:31:51;98276.94;;;10.20;67.83
74633;BME280;63139;52.018;8.552;2024-02-23T10:34:20;98281.00;;;10.16;68.22
74633;BME280;63139;52.018;8.552;2024-02-23T10:36:48;98299.47;;;10.23;68.59
74633;BME280;63139;52.018;8.552;2024-02-23T10:39:18;98261.66;;;10.40;67.99
74633;BME280;63139;52.018;8.552;2024-02-23T10:41:47;98270.63;;;10.39;66.90
74633;BME280;63139;52.018;8.552;2024-02-23T10:44:21;98287.75;;;10.37;67.87
74633;BME280;63139;52.018;8.552;2024-02-23T10:46:50;98281.66;;;10.36;68.05
74633;BME280;63139;52.018;8.552;2024-02-23T10:49:18;98261.66;;;10.40;67.93
74633;BME280;63139;52.018;8.552;2024-02-23T10:51:50;98289.50;;;10.43;67.08
74633;BME280;63139;52.018;8.552;2024-02-23T10:54:19;98289.72;;;10.41;67.49
74633;BME280;63139;52.018;8.552;2024-02-23T10:56:49;98275.81;;;10.46;65.47
74633;BME280;63139;52.018;8.552;2024-02-23T10:59:18;98270.41;;;10.41;66.30
74633;BME280;63139;52.018;8.552;2024-02-23T11:01:51;98284.78;;;10.45;66.06
74633;BME280;63139;52.018;8.552;2024-02-23T11:04:21;98281.50;;;10.49;66.66
74633;BME280;63139;52.018;8.552;2024-02-23T11:06:50;98279.41;;;10.70;66.89
74633;BME280;63139;52.018;8.552;2024-02-23T11:09:21;98265.19;;;10.82;66.08
74633;BME280;63139;52.018;8.552;2024-02-23T11:11:53;98266.16;;;11.00;64.84
74633;BME280;63139;52.018;8.552;2024-02-23T11:14:31;98264.50;;;11.17;63.48
74633;BME280;63139;52.018;8.552;2024-02-23T11:17:02;98259.22;;;11.28;64.51
74633;BME280;63139;52.018;8.552;2024-02-23T11:19:33;98259.91;;;11.24;64.51
74633;BME280;63139;52.018;8.552;2024-02-23T11:22:03;98254.72;;;11.29;64.02
74633;BME280;63139;52.018;8.552;2024-02-23T11:24:34;98250.56;;;11.21;62.57
74633;BME280;63139;52.018;8.552;2024-02-23T11:27:02;98247.72;;;11.35;64.08
74633;BME280;63139;52.018;8.552;2024-02-23T11:29:35;98255.47;;;11.48;63.84
74633;BME280;63139;52.018;8.552;2024-02-23T11:32:14;98242.44;;;11.58;63.46
74633;BME280;63139;52.018;8.552;2024-02-23T11:34:54;98243.84;;;11.60;62.60
74633;BME280;63139;52.018;8.552;2024-02-23T11:37:23;98252.81;;;11.59;63.60
74633;BME280;63139;52.018;8.552;2024-02-23T11:39:51;98248.88;;;11.50;62.46
74633;BME280;63139;52.018;8.552;2024-02-23T11:42:19;98249.00;;;11.44;63.51
74633;BME280;63139;52.018;8.552;2024-02-23T11:44:49;98254.06;;;11.34;63.07
74633;BME280;63139;52.018;8.552;2024-02-23T11:47:19;98255.66;;;11.35;64.03
74633;BME280;63139;52.018;8.552;2024-02-23T11:49:47;98255.47;;;11.48;63.61
74633;BME280;63139;52.018;8.552;2024-02-23T11:52:15;98251.31;;;11.52;63.10
74633;BME280;63139;52.018;8.552;2024-02-23T11:54:44;98249.25;;;11.54;63.59
74633;BME280;63139;52.018;8.552;2024-02-23T11:57:12;98253.84;;;11.58;63.45
74633;BME280;63139;52.018;8.552;2024-02-23T11:59:41;98249.34;;;11.47;63.76
74633;BME280;63139;52.018;8.552;2024-02-23T12:02:09;98253.38;;;11.38;63.99
74633;BME280;63139;52.018;8.552;2024-02-23T12:04:38;98259.25;;;11.52;64.15
74633;BME280;63139;52.018;8.552;2024-02-23T12:07:06;98262.84;;;11.69;63.75
74633;BME280;63139;52.018;8.552;2024-02-23T12:09:34;98248.91;;;11.62;61.91
74633;BME280;63139;52.018;8.552;2024-02-23T12:12:03;98257.41;;;11.64;62.26
74633;BME280;63139;52.018;8.552;2024-02-23T12:14:31;98257.41;;;11.52;61.13
74633;BME280;63139;52.018;8.552;2024-02-23T12:16:59;98259.50;;;11.62;60.96
74633;BME280;63139;52.018;8.552;2024-02-23T12:19:27;98266.44;;;11.75;61.73
74633;BME280;63139;52.018;8.552;2024-02-23T12:21:59;98249.25;;;11.65;60.28
74633;BME280;63139;52.018;8.552;2024-02-23T12:24:29;98250.63;;;11.68;60.41
74633;BME280;63139;52.018;8.552;2024-02-23T12:26:57;98252.16;;;11.76;60.45
74633;BME280;63139;52.018;8.552;2024-02-23T12:29:25;98240.94;;;11.74;60.11
74633;BME280;63139;52.018;8.552;2024-02-23T12:32:02;98252.38;;;11.74;60.16
74633;BME280;63139;52.018;8.552;2024-02-23T12:34:31;98252.16;;;11.76;61.43
74633;BME280;63139;52.018;8.552;2024-02-23T12:37:02;98251.25;;;11.82;61.19
74633;BME280;63139;52.018;8.552;2024-02-23T12:39:30;98247.88;;;11.98;61.37
74633;BME280;63139;52.018;8.552;2024-02-23T12:41:58;98261.47;;;12.01;60.80
74633;BME280;63139;52.018;8.552;2024-02-23T12:44:26;98256.16;;;12.01;61.10
74633;BME280;63139;52.018;8.552;2024-02-23T12:46:54;98251.56;;;11.97;60.86
74633;BME280;63139;52.018;8.552;2024-02-23T12:49:23;98257.94;;;11.84;60.43
74633;BME280;63139;52.018;8.552;2024-02-23T12:51:51;98253.44;;;11.85;60.82
74633;BME280;63139;52.018;8.552;2024-02-23T12:54:20;98258.03;;;11.89;60.00
74633;BME280;63139;52.018;8.552;2024-02-23T12:56:48;98243.38;;;11.87;59.84
74633;BME280;63139;52.018;8.552;2024-02-23T12:59:16;98250.09;;;11.78;60.27
74633;BME280;63139;52.018;8.552;2024-02-23T13:01:45;98237.34;;;11.56;60.63
74633;BME280;63139;52.018;8.552;2024-02-23T13:04:17;98237.25;;;11.40;60.93
74633;BME280;63139;52.018;8.552;2024-02-23T13:06:45;98239.16;;;11.21;61.83
74633;BME280;63139;52.018;8.552;2024-02-23T13:09:14;98237.94;;;10.94;61.23
74633;BME280;63139;52.018;8.552;2024-02-23T13:11:43;98246.50;;;10.96;61.41